x

Keaton Beach, Fl (ktnf1) Weather Station

9:00am - Sun 20th Aug 2017 All times are EDT. -4 hours from GMT.

  • Wind
    6mph, 7mph gusts
  • Air Temp 81°f
  • Sea Pressure 1016.9mb
  • Keaton Beach, Fl
  • Keaton Beach, Fl

More Historic Weather Station data

Upgrade to MSW Pro to gain access to the past 30 days of data for over 8000 Wavebouys and Weather Stations around the globe.

Join

Comparision Forecast

View Surf forecast
   
Sun 08/20 9:00am 6 7 mph 1016.9mb 81f
8:00am 5 6 mph 1016.5mb 78f
7:00am 3 5 mph 1016.1mb 76f
6:00am 3 5 mph 1015.5mb 77f
5:00am 2 3 mph 1015.1mb 77f
4:00am 2 3 mph 1014.8mb 78f
3:00am 5 6 mph 1014.9mb 78f
2:00am 3 3 mph 1015.3mb 79f
1:00am 2 2 mph 1015.6mb 80f
12:00am 1 2 mph 1015.2mb 80f
Sat 08/19 11:00pm  -  1 mph 1015.2mb 82f
10:00pm 3 5 mph 1014.6mb 84f
9:00pm 2 2 mph 1014.4mb 84f
8:00pm 6 7 mph 1013.9mb 84f
7:00pm 8 8 mph 1013.6mb 85f
6:00pm 8 8 mph 1013.7mb 86f
5:00pm 9 10 mph 1013.6mb 85f
4:00pm 10 11 mph 1014.5mb 84f
3:00pm 13 15 mph 1014.7mb 84f
2:00pm 6 7 mph 1015mb 86f
1:00pm 3 5 mph 1015.7mb 84f
12:00pm 3 6 mph 1015.6mb 83f
11:00am 8 11 mph 1015.5mb 77f
10:00am 13 17 mph 1016.4mb 78f
9:00am 20 23 mph 1016.3mb 78f
8:00am 7 8 mph 1015.1mb 80f
7:00am 2 3 mph 1014.6mb 80f
6:00am 3 5 mph 1013.6mb 78f
5:00am 7 8 mph 1013.9mb 78f
4:00am 3 3 mph 1013.9mb 77f
3:00am 5 6 mph 1014.5mb 78f
2:00am 2 2 mph 1014.8mb 80f
1:00am 7 8 mph 1015.1mb 82f
12:00am 16 18 mph 1015.4mb 83f
Fri 08/18 11:00pm 13 15 mph 1015.2mb 84f
10:00pm 9 11 mph 1015.7mb 83f
9:00pm 9 11 mph 1015.3mb 82f
8:00pm 7 8 mph 1015.4mb 78f
7:00pm 7 8 mph 1015.1mb 77f
6:00pm 9 13 mph 1015.5mb 80f
5:00pm 8 9 mph 1015.2mb 77f
4:00pm 6 7 mph 1015.2mb 77f
3:00pm 14 16 mph 1016.1mb 79f
2:00pm 17 22 mph 1015.7mb 82f
1:00pm 20 25 mph 1015.6mb 83f
12:00pm 6 8 mph 1016.3mb 89f
11:00am 3 6 mph 1016.4mb 89f
10:00am 3 5 mph 1016.1mb 87f
9:00am 3 7 mph 1016mb 84f
8:00am 3 6 mph 1015.7mb 83f
7:00am 5 8 mph 1015.4mb 82f
6:00am 3 5 mph 1015.3mb 83f
5:00am 13 15 mph 1014.8mb 85f
4:00am 9 10 mph 1014.8mb 85f
3:00am 8 10 mph 1015.2mb 86f
2:00am 9 10 mph 1015.7mb 86f
1:00am 9 11 mph 1016.2mb 87f
12:00am 13 16 mph 1016.5mb 88f
Thu 08/17 11:00pm 14 16 mph 1016.8mb 87f
10:00pm 11 14 mph 1016.7mb 87f
9:00pm 11 11 mph 1016.4mb 87f
8:00pm 11 13 mph 1015.8mb 87f
7:00pm 10 13 mph 1015.5mb 87f
6:00pm 9 10 mph 1015.8mb 87f
5:00pm 15 16 mph 1015.7mb 86f
4:00pm 13 15 mph 1016.3mb 87f
3:00pm 11 13 mph 1016.9mb 87f
2:00pm 11 14 mph 1017.8mb 86f
1:00pm 10 11 mph 1018.6mb 87f
12:00pm 9 11 mph 1018.9mb 86f
11:00am 9 11 mph 1019.1mb 86f
10:00am 10 15 mph 1018.9mb 85f
9:00am 10 13 mph 1018.6mb 85f
8:00am 3 6 mph 1018.3mb 83f
7:00am 2 2 mph 1017.8mb 79f
6:00am  -  2 mph 1017.2mb 82f
5:00am 1 3 mph 1016.7mb 82f
4:00am 3 3 mph 1016.7mb 82f
3:00am 8 13 mph 1016.8mb 85f
2:00am 11 15 mph 1017.3mb 85f
1:00am 15 21 mph 1017.9mb 86f
12:00am 14 18 mph 1017.9mb 86f
Wed 08/16 11:00pm 14 16 mph 1017.8mb 86f
10:00pm 13 15 mph 1017.7mb 86f
9:00pm 11 13 mph 1017.2mb 86f
8:00pm 11 13 mph 1017mb 86f
7:00pm 11 13 mph 1016.8mb 86f
6:00pm 10 13 mph 1016.6mb 87f
5:00pm 13 14 mph 1016.5mb 86f
4:00pm 13 14 mph 1016.7mb 86f
3:00pm 9 11 mph 1017.5mb 86f